Time;durP1;ratioP1;P1;durP2;ratioP2;P2;SDS_P1;SDS_P2;PMS_P1;PMS_P2;Temp;Humidity;BMP_temperature;BMP_pressure;BME280_temperature;BME280_humidity;BME280_pressure;Samples;Min_cycle;Max_cycle;Signal;HPM_P1;HPM_P2
2023/04/20 00:01:44;;;;;;;0.57;0.57;;;;;;;6.74;100.00;99866.19;6130672;23;20028;-92
2023/04/20 00:04:10;;;;;;;1.30;1.25;;;;;;;6.54;100.00;99841.25;6130323;23;20008;-93
2023/04/20 00:06:35;;;;;;;0.30;0.30;;;;;;;6.47;100.00;99835.84;6130515;23;20487;-94
2023/04/20 00:09:03;;;;;;;0.55;0.55;;;;;;;6.47;100.00;99820.06;6154719;23;20428;-92
2023/04/20 00:11:29;;;;;;;0.05;0.05;;;;;;;6.40;100.00;99831.19;6181329;23;20433;-93
2023/04/20 00:13:55;;;;;;;0.88;0.88;;;;;;;6.50;100.00;99849.56;6154951;23;20013;-93
2023/04/20 00:16:21;;;;;;;1.40;1.30;;;;;;;6.22;100.00;99805.88;6129775;23;20080;-93
2023/04/20 00:18:46;;;;;;;0.43;0.43;;;;;;;6.46;100.00;99846.09;6154730;23;20013;-93
2023/04/20 00:21:12;;;;;;;10.13;1.95;;;;;;;6.24;100.00;99821.97;6154843;23;20024;-94
2023/04/20 00:23:38;;;;;;;0.95;0.95;;;;;;;6.40;100.00;99844.97;6130662;23;20414;-92
2023/04/20 00:26:03;;;;;;;0.15;0.15;;;;;;;6.32;100.00;99829.72;6129373;23;20049;-92
2023/04/20 00:28:30;;;;;;;0.22;0.22;;;;;;;6.38;100.00;99835.56;6154780;23;20160;-92
2023/04/20 00:30:55;;;;;;;0.32;0.32;;;;;;;6.40;100.00;99846.94;6129997;23;20044;-93
2023/04/20 00:33:21;;;;;;;1.45;1.35;;;;;;;6.01;100.00;99786.84;6154314;23;20226;-92
2023/04/20 00:35:46;;;;;;;0.13;0.13;;;;;;;6.41;100.00;99846.53;6155651;23;20020;-92
2023/04/20 00:38:12;;;;;;;0.47;0.47;;;;;;;6.39;100.00;99835.13;6130596;23;20024;-92
2023/04/20 00:40:38;;;;;;;5.18;1.80;;;;;;;6.13;100.00;99794.56;6129888;23;20337;-92
2023/04/20 00:43:10;;;;;;;1.75;1.55;;;;;;;6.44;100.00;99842.94;6155043;23;20064;-92
2023/04/20 00:45:36;;;;;;;0.22;0.22;;;;;;;6.37;100.00;99840.28;6129328;23;20016;-91
2023/04/20 00:48:02;;;;;;;1.40;1.30;;;;;;;6.32;100.00;99829.72;6130412;23;20017;-92
2023/04/20 00:50:28;;;;;;;0.90;0.90;;;;;;;6.39;100.00;99835.13;6181315;23;20051;-93
2023/04/20 00:52:53;;;;;;;1.27;1.17;;;;;;;6.34;100.00;99834.84;6130262;23;20091;-92
2023/04/20 00:55:19;;;;;;;1.67;0.85;;;;;;;6.37;100.00;99834.00;6154088;23;20012;-92
2023/04/20 00:57:45;;;;;;;0.50;0.50;;;;;;;6.25;100.00;99818.03;6129821;23;20016;-91
2023/04/20 01:00:11;;;;;;;1.88;0.98;;;;;;;6.36;100.00;99830.47;6153444;23;20009;-92
2023/04/20 01:11:25;;;;;;;0.60;0.60;;;;;;;6.03;100.00;99789.97;6170960;23;20021;-90
2023/04/20 01:13:51;;;;;;;0.30;0.30;;;;;;;6.22;100.00;99827.91;6128098;23;20052;-90
2023/04/20 01:16:22;;;;;;;3.88;1.98;;;;;;;6.25;100.00;99823.53;6103618;23;20115;-90
2023/04/20 01:18:51;;;;;;;0.68;0.63;;;;;;;6.11;100.00;99812.72;6126910;23;20108;-91
2023/04/20 01:21:20;;;;;;;0.35;0.25;;;;;;;6.08;100.00;99817.81;6127893;23;20021;-90
2023/04/20 01:23:46;;;;;;;0.47;0.47;;;;;;;6.19;100.00;99831.47;6103430;23;20017;-90
2023/04/20 01:26:15;;;;;;;0.47;0.35;;;;;;;6.03;100.00;99811.97;6103132;23;20104;-92
2023/04/20 01:28:42;;;;;;;1.30;1.23;;;;;;;6.15;100.00;99836.22;6102940;23;20048;-90
2023/04/20 01:31:09;;;;;;;1.35;0.93;;;;;;;6.03;100.00;99811.97;6103249;23;19997;-90
2023/04/20 01:33:35;;;;;;;0.35;0.35;;;;;;;6.02;100.00;99815.94;6103487;23;20053;-90
2023/04/20 01:36:04;;;;;;;0.95;0.77;;;;;;;6.14;100.00;99828.41;6120820;23;20107;-91
2023/04/20 01:38:31;;;;;;;0.73;0.73;;;;;;;6.08;100.00;99834.34;6095568;23;20013;-91
2023/04/20 01:41:00;;;;;;;2.33;2.13;;;;;;;6.05;100.00;99824.16;6122706;23;20100;-90
2023/04/20 01:43:26;;;;;;;2.40;1.70;;;;;;;6.07;100.00;99826.50;6122665;23;20121;-91
2023/04/20 01:45:52;;;;;;;1.30;1.25;;;;;;;5.90;100.00;99813.72;6098463;23;20052;-91
2023/04/20 01:48:17;;;;;;;1.63;1.25;;;;;;;6.01;100.00;99831.69;6098353;23;20017;-91
2023/04/20 01:50:43;;;;;;;0.75;0.63;;;;;;;5.74;100.00;99784.00;6122779;23;20001;-92
2023/04/20 01:53:12;;;;;;;0.10;0.10;;;;;;;6.00;100.00;99832.09;6074948;23;20027;-92
2023/04/20 01:55:38;;;;;;;1.20;1.17;;;;;;;5.96;100.00;99815.63;6148756;23;20378;-91
2023/04/20 01:58:03;;;;;;;0.17;0.17;;;;;;;5.92;100.00;99816.84;6148395;23;20085;-91
2023/04/20 02:00:29;;;;;;;1.55;1.45;;;;;;;5.68;100.00;99791.13;6124537;23;20472;-92
2023/04/20 02:02:57;;;;;;;0.88;0.88;;;;;;;5.94;100.00;99825.47;6124350;23;20379;-92
2023/04/20 02:05:23;;;;;;;3.33;1.48;;;;;;;5.92;100.00;99823.13;6076209;23;20021;-92
2023/04/20 02:07:48;;;;;;;1.27;1.27;;;;;;;5.91;100.00;99824.31;6100580;23;20017;-92
2023/04/20 02:10:14;;;;;;;0.93;0.93;;;;;;;5.94;100.00;99825.47;6100143;23;20076;-92
2023/04/20 02:12:43;;;;;;;0.00;0.00;;;;;;;5.70;100.00;99794.28;6124553;23;20002;-93
2023/04/20 02:15:09;;;;;;;0.57;0.57;;;;;;;5.81;100.00;99813.41;6147112;23;20013;-92
2023/04/20 02:17:35;;;;;;;0.57;0.57;;;;;;;5.80;100.00;99804.38;6075470;23;20021;-92
2023/04/20 02:20:05;;;;;;;1.58;1.48;;;;;;;5.76;100.00;99811.09;6076165;23;20331;-94
2023/04/20 02:22:33;;;;;;;1.23;1.13;;;;;;;5.57;100.00;99780.25;6102417;23;20013;-92
2023/04/20 02:25:03;;;;;;;1.33;1.23;;;;;;;5.83;100.00;99820.06;6102624;23;20009;-92
2023/04/20 02:27:30;;;;;;;1.52;1.42;;;;;;;5.59;100.00;99794.38;6152538;23;20020;-93
2023/04/20 02:29:56;;;;;;;0.95;0.93;;;;;;;5.61;100.00;99803.00;6126392;23;20005;-92
2023/04/20 02:32:21;;;;;;;0.63;0.63;;;;;;;5.61;100.00;99803.00;6126585;23;20022;-92
2023/04/20 02:34:48;;;;;;;4.43;0.77;;;;;;;5.37;100.00;99765.53;6102630;23;20081;-92
2023/04/20 02:37:13;;;;;;;2.83;0.85;;;;;;;5.58;100.00;99803.81;6151767;23;20013;-92
2023/04/20 02:39:41;;;;;;;1.88;0.68;;;;;;;5.34;100.00;99771.81;6101915;23;20032;-92
2023/04/20 02:42:07;;;;;;;0.50;0.50;;;;;;;5.67;100.00;99821.81;6126646;23;20092;-92
2023/04/20 02:44:32;;;;;;;0.73;0.73;;;;;;;5.58;100.00;99798.28;6125987;23;20022;-91
2023/04/20 02:46:58;;;;;;;1.80;0.82;;;;;;;5.53;100.00;99815.28;6126860;23;20338;-92
2023/04/20 02:49:25;;;;;;;1.30;0.98;;;;;;;5.60;100.00;99839.97;6101956;23;20017;-92
2023/04/20 02:51:50;;;;;;;0.85;0.85;;;;;;;5.46;100.00;99818.06;6102486;23;20009;-92
2023/04/20 02:54:16;;;;;;;0.82;0.80;;;;;;;5.53;100.00;99834.53;6125993;23;20212;-91
2023/04/20 02:56:42;;;;;;;0.35;0.35;;;;;;;5.40;100.00;99810.69;6102247;23;20044;-92
2023/04/20 02:59:09;;;;;;;2.17;1.60;;;;;;;5.42;100.00;99825.56;6100565;23;20017;-92
2023/04/20 03:01:56;;;;;;;1.40;1.30;;;;;;;5.33;100.00;99814.28;6106507;23;20053;-92
2023/04/20 03:04:24;;;;;;;2.30;1.40;;;;;;;5.39;100.00;99831.91;6126085;23;20018;-92
2023/04/20 03:06:59;;;;;;;0.45;0.45;;;;;;;5.25;100.00;99818.28;6150551;23;20025;-91
2023/04/20 03:09:31;;;;;;;0.47;0.47;;;;;;;5.37;100.00;99842.53;6124249;23;20010;-92
2023/04/20 03:12:06;;;;;;;0.57;0.57;;;;;;;5.26;100.00;99832.81;6080509;23;20021;-91
2023/04/20 03:14:50;;;;;;;1.38;1.33;;;;;;;5.32;100.00;99845.72;6125630;23;20603;-92
2023/04/20 03:17:19;;;;;;;1.02;1.02;;;;;;;5.17;100.00;99822.28;6079437;23;20466;-91
2023/04/20 03:19:45;;;;;;;1.60;1.50;;;;;;;5.28;100.00;99844.97;6102607;23;20076;-92
2023/04/20 03:22:10;;;;;;;0.65;0.52;;;;;;;5.23;100.00;99845.41;6101687;23;20017;-91
2023/04/20 03:24:39;;;;;;;0.45;0.45;;;;;;;5.06;100.00;99810.56;6102593;23;20062;-92
2023/04/20 03:27:19;;;;;;;0.32;0.32;;;;;;;4.98;100.00;99806.31;6104738;23;20072;-91
2023/04/20 03:29:59;;;;;;;1.27;0.38;;;;;;;5.03;100.00;99823.16;6103596;23;20021;-92
2023/04/20 03:32:26;;;;;;;1.63;1.45;;;;;;;4.78;100.00;99783.31;6101559;23;20100;-92
2023/04/20 03:34:52;;;;;;;2.88;1.67;;;;;;;4.88;100.00;99807.19;6101405;23;20013;-92
2023/04/20 03:37:17;;;;;;;2.25;2.05;;;;;;;4.98;100.00;99831.06;6101276;23;20500;-92
2023/04/20 03:39:45;;;;;;;1.88;1.52;;;;;;;5.05;100.00;99855.75;6101788;23;20397;-91
2023/04/20 03:42:11;;;;;;;1.98;1.63;;;;;;;4.87;100.00;99824.84;6077838;23;20016;-92
2023/04/20 03:44:37;;;;;;;2.13;1.15;;;;;;;4.95;100.00;99848.38;6125510;23;20044;-92
2023/04/20 03:47:04;;;;;;;0.43;0.43;;;;;;;4.99;100.00;99849.13;6101661;23;20013;-92
2023/04/20 03:49:31;;;;;;;0.60;0.60;;;;;;;5.00;100.00;99853.44;6124725;23;20014;-91
2023/04/20 03:51:56;;;;;;;0.65;0.65;;;;;;;4.85;100.00;99832.75;6101548;23;20013;-92
2023/04/20 03:54:22;;;;;;;1.20;1.10;;;;;;;4.83;100.00;99840.59;6125086;23;20095;-92
2023/04/20 03:56:48;;;;;;;2.35;1.80;;;;;;;4.65;100.00;99814.00;6097956;23;20071;-92
2023/04/20 03:59:15;;;;;;;0.90;0.85;;;;;;;4.82;100.00;99850.00;6095542;23;20024;-91
2023/04/20 04:01:44;;;;;;;0.40;0.40;;;;;;;4.58;100.00;99813.28;6097597;23;20462;-91
2023/04/20 04:04:11;;;;;;;2.25;1.85;;;;;;;4.69;100.00;99836.00;6094353;23;20021;-91
2023/04/20 04:06:37;;;;;;;0.50;0.50;;;;;;;4.68;100.00;99848.94;6118899;23;20044;-91
2023/04/20 04:09:03;;;;;;;0.55;0.55;;;;;;;4.55;100.00;99834.09;6119377;23;20311;-90
2023/04/20 04:11:29;;;;;;;0.82;0.75;;;;;;;4.42;100.00;99797.28;6095821;23;20509;-91
2023/04/20 04:13:56;;;;;;;1.25;1.23;;;;;;;4.56;100.00;99835.66;6146956;23;20001;-92
2023/04/20 04:16:22;;;;;;;0.50;0.50;;;;;;;4.75;100.00;99858.31;6118292;23;20029;-92
2023/04/20 04:18:49;;;;;;;0.35;0.35;;;;;;;4.48;100.00;99820.41;6071571;23;20095;-92
2023/04/20 04:21:15;;;;;;;0.85;0.82;;;;;;;4.40;100.00;99796.91;6094456;23;20442;-91
2023/04/20 04:23:46;;;;;;;0.20;0.20;;;;;;;4.58;100.00;99852.50;6072771;23;20101;-91
2023/04/20 04:26:35;;;;;;;1.95;1.48;;;;;;;4.55;100.00;99844.31;6145137;23;20025;-91
2023/04/20 04:29:05;;;;;;;1.40;1.25;;;;;;;4.46;100.00;99832.97;6072433;23;20013;-91
2023/04/20 04:31:32;;;;;;;0.20;0.20;;;;;;;4.66;100.00;99861.50;6072492;23;20460;-92
2023/04/20 04:34:03;;;;;;;1.90;1.17;;;;;;;4.43;100.00;99834.56;6095459;23;20088;-93
2023/04/20 04:36:36;;;;;;;1.25;0.77;;;;;;;4.71;100.00;99869.31;6075319;23;20028;-94
2023/04/20 04:39:02;;;;;;;2.05;1.08;;;;;;;4.61;100.00;99854.47;6097919;23;20743;-92
2023/04/20 04:41:28;;;;;;;0.93;0.93;;;;;;;4.61;100.00;99859.19;6099702;23;20009;-91
2023/04/20 04:44:04;;;;;;;0.80;0.80;;;;;;;4.50;100.00;99848.25;6099939;23;20431;-90
2023/04/20 04:46:31;;;;;;;1.45;0.75;;;;;;;4.53;100.00;99850.19;6123311;23;20130;-91
2023/04/20 04:48:59;;;;;;;0.20;0.20;;;;;;;4.78;100.00;99876.72;6099338;23;20104;-91
2023/04/20 04:51:25;;;;;;;2.08;1.92;;;;;;;4.50;100.00;99836.47;6123117;23;20056;-91
2023/04/20 04:53:51;;;;;;;0.75;0.75;;;;;;;4.76;100.00;99873.63;6099454;23;20013;-93
2023/04/20 04:56:19;;;;;;;1.27;1.23;;;;;;;4.68;100.00;99868.19;6099843;23;20016;-92
2023/04/20 04:58:47;;;;;;;1.70;1.60;;;;;;;4.73;100.00;99875.22;6124370;23;20032;-91
2023/04/20 05:01:13;;;;;;;3.00;2.17;;;;;;;4.54;100.00;99840.78;6149175;23;20407;-91
2023/04/20 05:03:40;;;;;;;1.30;1.25;;;;;;;4.53;100.00;99830.97;6117374;23;20417;-89
2023/04/20 05:06:15;;;;;;;2.00;1.08;;;;;;;4.55;100.00;99825.06;6122145;23;20009;-91
2023/04/20 05:08:41;;;;;;;0.98;0.90;;;;;;;4.91;100.00;99869.59;6120518;23;20093;-91
2023/04/20 05:11:06;;;;;;;1.95;1.77;;;;;;;4.74;100.00;99843.00;6095953;23;20064;-91
2023/04/20 05:13:35;;;;;;;0.98;0.98;;;;;;;5.04;100.00;99878.94;6092617;23;20354;-91
2023/04/20 05:16:01;;;;;;;1.85;1.42;;;;;;;5.06;100.00;99882.03;6096504;23;20005;-92
2023/04/20 05:18:26;;;;;;;0.32;0.32;;;;;;;4.96;100.00;99866.44;6099017;23;20525;-92
2023/04/20 05:20:53;;;;;;;1.58;0.90;;;;;;;5.16;100.00;99882.00;6075845;23;20072;-93
2023/04/20 05:23:19;;;;;;;1.80;1.70;;;;;;;4.98;100.00;99850.28;6076498;23;20013;-92
2023/04/20 05:25:44;;;;;;;0.40;0.40;;;;;;;5.26;100.00;99885.81;6125906;23;20100;-91
2023/04/20 05:28:10;;;;;;;1.02;1.02;;;;;;;5.23;100.00;99859.16;6149720;23;20355;-92
2023/04/20 05:30:39;;;;;;;0.35;0.35;;;;;;;5.36;100.00;99873.97;6125002;23;20076;-92
2023/04/20 05:33:05;;;;;;;1.67;1.38;;;;;;;5.31;100.00;99838.66;6098583;23;20014;-91
2023/04/20 05:35:30;;;;;;;1.55;1.20;;;;;;;5.51;100.00;99856.16;6150420;23;20018;-93
2023/04/20 05:37:59;;;;;;;0.68;0.68;;;;;;;5.63;100.00;99855.66;6146774;23;20104;-93
2023/04/20 05:40:25;;;;;;;1.50;1.40;;;;;;;5.91;100.00;99892.34;6098961;23;20021;-92
2023/04/20 05:42:50;;;;;;;0.40;0.40;;;;;;;5.84;100.00;99871.16;6099488;23;20010;-93
2023/04/20 05:45:16;;;;;;;1.88;1.77;;;;;;;6.04;100.00;99898.91;6073429;23;20442;-93
2023/04/20 05:47:50;;;;;;;2.80;1.02;;;;;;;6.08;100.00;99896.91;6075352;23;20093;-93
2023/04/20 05:50:16;;;;;;;1.55;1.25;;;;;;;6.34;100.00;99893.47;6098124;23;20045;-93
2023/04/20 05:52:41;;;;;;;0.75;0.75;;;;;;;6.30;100.00;99870.69;6121675;23;20438;-91
2023/04/20 05:55:08;;;;;;;1.27;1.17;;;;;;;6.51;100.00;99884.19;6124003;23;20021;-90
2023/04/20 05:57:33;;;;;;;1.15;1.15;;;;;;;6.51;100.00;99864.91;6102680;23;20010;-91
2023/04/20 06:00:02;;;;;;;1.55;1.40;;;;;;;6.85;100.00;99884.13;6152658;23;20020;-90
2023/04/20 06:02:38;;;;;;;0.50;0.50;;;;;;;7.11;100.00;99893.63;6107698;23;20018;-91
2023/04/20 06:05:04;;;;;;;0.40;0.40;;;;;;;7.39;100.00;99892.38;6101486;23;20075;-92
2023/04/20 06:07:30;;;;;;;1.83;1.73;;;;;;;7.47;100.00;99902.13;6103112;23;20014;-90
2023/04/20 06:09:56;;;;;;;1.70;1.60;;;;;;;7.70;100.00;99915.13;6102987;23;20160;-90
2023/04/20 06:12:21;;;;;;;0.57;0.57;;;;;;;7.85;100.00;99899.88;6125859;23;20204;-91
2023/04/20 06:14:47;;;;;;;0.82;0.68;;;;;;;7.81;100.00;99885.34;6126261;23;20184;-90
2023/04/20 06:17:12;;;;;;;3.40;1.65;;;;;;;7.91;100.00;99898.19;6126820;23;20017;-90
2023/04/20 06:19:38;;;;;;;1.50;1.20;;;;;;;8.04;100.00;99877.06;6126314;23;20029;-90
2023/04/20 06:22:07;;;;;;;2.05;1.58;;;;;;;8.27;100.00;99910.13;6102218;23;20489;-90
2023/04/20 06:24:37;;;;;;;0.98;0.98;;;;;;;8.35;100.00;99911.59;6151947;23;20028;-90
2023/04/20 06:27:03;;;;;;;1.17;1.13;;;;;;;8.57;100.00;99898.13;6126976;23;20017;-90
2023/04/20 06:29:29;;;;;;;1.23;1.13;;;;;;;8.64;100.00;99850.19;6152288;23;20128;-90
2023/04/20 06:31:54;;;;;;;1.27;1.23;;;;;;;8.98;100.00;99886.53;6078332;23;20335;-92
2023/04/20 06:34:20;;;;;;;0.85;0.82;;;;;;;9.06;100.00;99881.66;6101848;23;20013;-92
2023/04/20 06:36:45;;;;;;;4.45;2.45;;;;;;;9.22;100.00;99887.22;6102232;23;20022;-91
2023/04/20 06:39:11;;;;;;;0.50;0.50;;;;;;;9.38;100.00;99899.03;6151654;23;20017;-91
2023/04/20 06:41:37;;;;;;;1.05;1.02;;;;;;;9.51;100.00;99884.50;6126871;23;20033;-92
2023/04/20 06:44:05;;;;;;;1.42;1.33;;;;;;;9.89;100.00;99910.44;6101424;23;20021;-91
2023/04/20 06:46:31;;;;;;;1.30;0.98;;;;;;;10.09;100.00;99893.69;6126047;23;20578;-91
2023/04/20 06:48:58;;;;;;;0.70;0.70;;;;;;;10.13;100.00;99895.16;6101856;23;20002;-91
2023/04/20 06:51:24;;;;;;;2.88;2.55;;;;;;;10.36;100.00;99921.09;6078249;23;20365;-92
2023/04/20 06:53:49;;;;;;;1.00;1.00;;;;;;;10.52;100.00;99926.59;6126267;23;20017;-92
2023/04/20 06:56:15;;;;;;;0.95;0.88;;;;;;;10.52;100.00;99918.25;6152407;23;20394;-91
2023/04/20 06:58:41;;;;;;;3.90;2.67;;;;;;;10.66;100.00;99895.69;6152860;23;20014;-91
2023/04/20 07:01:06;;;;;;;2.53;2.38;;;;;;;10.76;100.00;99908.44;6152004;23;20520;-92
2023/04/20 07:03:32;;;;;;;1.42;1.35;;;;;;;11.01;100.00;99908.50;6101528;23;20026;-91
2023/04/20 07:05:58;;;;;;;1.38;0.93;;;;;;;10.73;100.00;99887.13;6126090;23;20068;-92
2023/04/20 07:08:23;;;;;;;2.00;1.63;;;;;;;10.83;100.00;99922.13;6125334;23;20073;-92
2023/04/20 07:10:49;;;;;;;0.77;0.70;;;;;;;10.77;100.00;99896.13;6126383;23;20017;-93
2023/04/20 07:13:15;;;;;;;0.77;0.70;;;;;;;10.93;100.00;99926.56;6126088;23;20002;-92
2023/04/20 07:15:42;;;;;;;2.75;2.53;;;;;;;11.20;100.00;99917.84;6151691;23;20062;-91
2023/04/20 07:18:07;;;;;;;0.32;0.32;;;;;;;11.20;100.00;99907.50;6126815;23;20001;-92
2023/04/20 07:20:33;;;;;;;1.17;1.13;;;;;;;11.50;100.00;99931.16;6150942;23;20108;-92
2023/04/20 07:23:02;;;;;;;0.63;0.63;;;;;;;11.64;100.00;99908.47;6103399;23;20454;-92
2023/04/20 07:25:31;;;;;;;2.30;1.30;;;;;;;11.66;100.00;99942.13;6125899;23;20044;-91
2023/04/20 07:27:57;;;;;;;0.73;0.73;;;;;;;11.85;100.00;99934.78;6152464;23;20084;-93
2023/04/20 07:30:25;;;;;;;1.13;1.02;;;;;;;11.77;100.00;99911.22;6126300;23;20006;-91
2023/04/20 07:32:50;;;;;;;2.15;1.77;;;;;;;12.09;100.00;99947.06;6126577;23;20071;-92
2023/04/20 07:35:16;;;;;;;1.77;1.67;;;;;;;11.77;100.00;99927.91;6125806;23;20010;-91
2023/04/20 07:37:42;;;;;;;1.83;1.60;;;;;;;11.65;100.00;99912.00;6152668;23;20017;-91
2023/04/20 07:40:08;;;;;;;3.53;1.70;;;;;;;11.72;100.00;99919.38;6151563;23;20407;-92
2023/04/20 07:42:35;;;;;;;2.70;1.35;;;;;;;11.72;100.00;99947.94;6102396;23;20014;-92
2023/04/20 07:45:05;;;;;;;0.98;0.88;;;;;;;11.53;100.00;99910.03;6125895;23;20084;-91
2023/04/20 07:47:32;;;;;;;1.08;1.05;;;;;;;11.54;100.00;99914.34;6102118;23;20022;-92
2023/04/20 07:49:57;;;;;;;0.63;0.63;;;;;;;11.73;100.00;99913.34;6125752;23;20036;-91
2023/04/20 07:52:24;;;;;;;0.93;0.90;;;;;;;11.86;100.00;99908.53;6125998;23;20426;-92
2023/04/20 07:54:52;;;;;;;2.78;1.65;;;;;;;12.43;100.00;99946.28;6125714;23;20031;-93
2023/04/20 07:57:19;;;;;;;3.13;2.08;;;;;;;12.55;100.00;99925.19;6125365;23;20498;-92
2023/04/20 07:59:45;;;;;;;2.75;1.70;;;;;;;13.08;100.00;99940.69;6151057;23;20001;-91
2023/04/20 08:02:11;;;;;;;1.35;1.25;;;;;;;13.21;100.00;99934.28;6152176;23;20016;-92
2023/04/20 08:04:36;;;;;;;1.85;0.85;;;;;;;13.06;100.00;99892.25;6125394;23;20350;-91
2023/04/20 08:07:02;;;;;;;0.82;0.82;;;;;;;13.29;100.00;99929.97;6125969;23;20481;-91
2023/04/20 08:09:28;;;;;;;0.80;0.80;;;;;;;13.40;100.00;99902.47;6150839;23;20009;-91
2023/04/20 08:11:54;;;;;;;2.03;1.90;;;;;;;13.57;99.56;99917.69;6125500;23;20016;-91
2023/04/20 08:14:19;;;;;;;0.63;0.63;;;;;;;13.89;98.29;99936.66;6126082;23;20009;-92
2023/04/20 08:16:45;;;;;;;4.10;1.00;;;;;;;14.28;99.89;99948.16;6151489;23;20014;-92
2023/04/20 08:19:13;;;;;;;2.33;2.13;;;;;;;14.36;93.64;99938.25;6125467;23;20009;-92
2023/04/20 08:21:39;;;;;;;1.60;1.45;;;;;;;14.50;97.29;99934.06;6126045;23;20094;-92
2023/04/20 08:24:06;;;;;;;0.52;0.52;;;;;;;14.89;94.10;99939.44;6100089;23;20010;-91
2023/04/20 08:26:32;;;;;;;2.92;1.38;;;;;;;15.10;93.31;99925.75;6125750;23;20017;-92
2023/04/20 08:28:58;;;;;;;1.33;1.23;;;;;;;15.11;87.60;99888.19;6101398;23;20374;-91
2023/04/20 08:31:24;;;;;;;0.73;0.73;;;;;;;15.35;84.74;99898.16;6124936;23;20009;-91
2023/04/20 08:33:50;;;;;;;1.08;1.02;;;;;;;15.43;81.33;99915.38;6100663;23;20032;-91
2023/04/20 08:36:15;;;;;;;2.75;1.55;;;;;;;15.37;83.48;99928.41;6125261;23;20104;-91
2023/04/20 08:38:53;;;;;;;1.20;1.08;;;;;;;15.53;83.41;99916.88;6125193;23;20044;-91
2023/04/20 08:41:22;;;;;;;2.88;1.17;;;;;;;15.55;81.42;99892.03;6150039;23;20441;-91
2023/04/20 08:43:49;;;;;;;1.27;1.17;;;;;;;15.93;81.23;99913.72;6125185;23;20068;-92
2023/04/20 08:46:16;;;;;;;2.05;1.85;;;;;;;16.12;80.09;99914.34;6100707;23;20036;-91
2023/04/20 08:48:45;;;;;;;1.50;1.08;;;;;;;15.92;76.73;99906.56;6151617;23;20010;-91
2023/04/20 08:51:11;;;;;;;1.20;1.10;;;;;;;16.28;78.06;99911.13;6125077;23;20012;-91
2023/04/20 08:53:36;;;;;;;1.73;1.05;;;;;;;16.33;75.20;99902.06;6150061;23;20017;-91
2023/04/20 08:56:02;;;;;;;10.07;1.55;;;;;;;16.01;71.48;99881.34;6125863;23;20020;-91
2023/04/20 08:58:33;;;;;;;2.67;1.27;;;;;;;16.11;80.52;99905.19;6126004;23;20006;-91
2023/04/20 09:00:59;;;;;;;1.38;1.27;;;;;;;16.36;76.35;99906.69;6101212;23;20080;-92
2023/04/20 09:03:35;;;;;;;0.17;0.17;;;;;;;16.74;73.01;99906.66;6149707;23;20009;-91
2023/04/20 09:06:01;;;;;;;0.65;0.60;;;;;;;17.22;71.88;99912.06;6151149;23;20455;-91
2023/04/20 09:08:35;;;;;;;2.30;1.70;;;;;;;17.01;67.74;99888.78;6125224;23;20013;-92
2023/04/20 09:11:00;;;;;;;1.75;1.25;;;;;;;17.17;69.26;99909.94;6125506;23;20025;-91
2023/04/20 09:13:26;;;;;;;2.22;1.50;;;;;;;17.16;61.66;99883.16;6125544;23;20083;-91
2023/04/20 09:15:51;;;;;;;0.52;0.52;;;;;;;17.11;62.70;99897.84;6150803;23;20481;-89
2023/04/20 09:18:17;;;;;;;0.73;0.73;;;;;;;16.97;61.33;99870.63;6151395;23;20014;-92
2023/04/20 09:20:43;;;;;;;0.60;0.60;;;;;;;17.32;62.50;99891.06;6100860;23;20072;-91
2023/04/20 09:23:20;;;;;;;1.40;0.98;;;;;;;17.29;64.31;99908.84;6125123;23;20273;-91
2023/04/20 09:25:51;;;;;;;1.20;1.10;;;;;;;17.42;61.55;99908.53;6101076;23;20089;-91
2023/04/20 09:28:17;;;;;;;5.20;0.70;;;;;;;16.91;62.26;99890.13;6125523;23;20060;-91
2023/04/20 09:30:49;;;;;;;1.80;1.05;;;;;;;17.04;65.54;99887.03;6124461;23;20018;-91
2023/04/20 09:33:15;;;;;;;0.95;0.85;;;;;;;17.65;65.17;99902.00;6127500;23;20009;-91
2023/04/20 09:35:42;;;;;;;1.08;1.00;;;;;;;17.89;60.67;99880.16;6127189;23;20013;-91
2023/04/20 09:38:08;;;;;;;1.20;0.82;;;;;;;17.89;60.46;99894.19;6126660;23;20021;-91
2023/04/20 09:40:34;;;;;;;0.73;0.73;;;;;;;17.70;58.42;99870.47;6127072;23;20025;-91
2023/04/20 09:43:08;;;;;;;1.60;1.35;;;;;;;18.06;60.29;99897.19;6103452;23;20017;-91
2023/04/20 09:45:37;;;;;;;1.17;1.05;;;;;;;18.06;59.41;99897.19;6101738;23;20006;-91
2023/04/20 09:48:07;;;;;;;4.32;1.45;;;;;;;18.16;57.84;99893.75;6103162;23;20424;-92
2023/04/20 09:50:36;;;;;;;1.55;0.95;;;;;;;18.12;56.16;99895.22;6102974;23;20016;-91
2023/04/20 09:53:05;;;;;;;1.10;0.90;;;;;;;18.52;56.67;99891.63;6151823;23;20410;-93
2023/04/20 09:55:31;;;;;;;1.33;1.23;;;;;;;18.66;54.31;99899.16;6127131;23;20025;-92
2023/04/20 09:57:58;;;;;;;2.72;1.50;;;;;;;18.82;48.98;99872.50;6103263;23;20092;-91
2023/04/20 10:00:24;;;;;;;1.00;0.93;;;;;;;18.83;50.08;99896.53;6101107;23;20009;-92
2023/04/20 10:02:50;;;;;;;0.77;0.75;;;;;;;19.28;49.42;99903.28;6127930;23;20013;-91
2023/04/20 10:05:15;;;;;;;1.20;0.88;;;;;;;19.25;48.22;99888.16;6151122;23;20044;-92
2023/04/20 10:07:41;;;;;;;2.30;0.75;;;;;;;19.02;48.92;99892.09;6127268;23;20009;-92
2023/04/20 10:10:09;;;;;;;1.20;1.02;;;;;;;19.44;50.46;99894.22;6126258;23;20060;-91
2023/04/20 10:12:49;;;;;;;0.77;0.55;;;;;;;19.27;48.71;99873.63;6127153;23;20040;-92
2023/04/20 10:15:14;;;;;;;1.60;1.27;;;;;;;19.17;50.22;99887.09;6101553;23;20017;-91
2023/04/20 10:17:40;;;;;;;1.35;1.15;;;;;;;18.92;52.18;99899.16;6102332;23;20020;-93
2023/04/20 10:20:18;;;;;;;0.45;0.45;;;;;;;18.76;52.67;99880.13;6101892;23;20018;-92
2023/04/20 10:22:43;;;;;;;0.85;0.70;;;;;;;18.98;52.79;99863.44;6102583;23;20516;-91
2023/04/20 10:25:25;;;;;;;0.32;0.32;;;;;;;19.26;52.66;99884.09;6125539;23;20017;-91
2023/04/20 10:27:56;;;;;;;0.68;0.57;;;;;;;19.18;46.43;99883.00;6127256;23;20468;-91
2023/04/20 10:30:32;;;;;;;;;;;;;;;19.57;47.21;99900.19;6150735;23;20606;-92
2023/04/20 10:33:11;;;;;;;0.95;0.75;;;;;;;19.70;46.95;99883.63;6127005;23;19913;-91
2023/04/20 10:35:57;;;;;;;1.75;1.08;;;;;;;19.61;45.27;99883.09;6126011;23;20442;-90
2023/04/20 10:38:29;;;;;;;0.20;0.20;;;;;;;19.50;45.64;99884.53;6152227;23;20191;-93
2023/04/20 10:40:55;;;;;;;0.68;0.68;;;;;;;19.48;45.17;99884.28;6126964;23;20020;-92
2023/04/20 10:43:21;;;;;;;0.43;0.38;;;;;;;19.41;45.13;99872.72;6126337;23;20381;-92
2023/04/20 10:45:48;;;;;;;1.00;1.00;;;;;;;19.24;45.67;99869.00;6125947;23;20362;-91
2023/04/20 10:48:14;;;;;;;1.27;1.13;;;;;;;19.26;45.48;99883.31;6126797;23;20081;-91
2023/04/20 10:50:39;;;;;;;0.30;0.30;;;;;;;18.75;45.21;99872.94;6126443;23;20028;-91
2023/04/20 10:53:06;;;;;;;2.67;1.05;;;;;;;18.84;46.37;99875.59;6126462;23;20527;-92
2023/04/20 10:55:33;;;;;;;0.10;0.10;;;;;;;19.21;48.84;99851.06;6153070;23;20009;-89
2023/04/20 10:57:58;;;;;;;0.30;0.30;;;;;;;19.86;46.19;99854.03;6126736;23;20018;-90
2023/04/20 11:00:26;;;;;;;0.32;0.32;;;;;;;19.89;43.18;99865.06;6125417;23;20020;-89
2023/04/20 11:02:55;;;;;;;0.82;0.73;;;;;;;19.79;43.73;99851.69;6101371;23;20013;-89
2023/04/20 11:05:22;;;;;;;0.43;0.43;;;;;;;19.78;44.44;99861.41;6126104;23;20013;-89
2023/04/20 11:07:52;;;;;;;0.40;0.40;;;;;;;19.77;45.33;99862.69;6126711;23;20005;-89
2023/04/20 11:10:19;;;;;;;0.10;0.10;;;;;;;19.66;45.12;99854.19;6077167;23;20450;-89
2023/04/20 11:12:45;;;;;;;0.60;0.60;;;;;;;19.81;45.36;99833.03;6100023;23;20084;-90
2023/04/20 11:15:10;;;;;;;0.70;0.70;;;;;;;20.18;46.63;99846.97;6101000;23;20457;-88
2023/04/20 11:17:38;;;;;;;0.73;0.73;;;;;;;20.75;42.63;99845.81;6101922;23;20013;-89
2023/04/20 11:20:08;;;;;;;0.35;0.22;;;;;;;20.36;42.04;99849.38;6125787;23;20088;-88
2023/04/20 11:22:33;;;;;;;0.20;0.20;;;;;;;20.21;42.64;99843.16;6102428;23;20072;-88
2023/04/20 11:25:07;;;;;;;2.30;1.13;;;;;;;20.18;42.67;99858.22;6125499;23;20017;-88
2023/04/20 11:27:33;;;;;;;0.38;0.38;;;;;;;20.33;44.16;99856.03;6152214;23;20017;-89
2023/04/20 11:29:59;;;;;;;0.70;0.63;;;;;;;20.16;43.44;99843.91;6101280;23;20052;-90
2023/04/20 11:32:25;;;;;;;1.00;0.77;;;;;;;20.31;43.82;99829.63;6150637;23;20473;-90
2023/04/20 11:35:09;;;;;;;1.70;1.60;;;;;;;20.23;41.59;99843.41;6125375;23;20036;-91
2023/04/20 11:37:52;;;;;;;0.45;0.45;;;;;;;19.78;43.54;99852.97;6100243;23;20104;-89
2023/04/20 11:40:18;;;;;;;0.43;0.43;;;;;;;20.21;45.23;99848.78;6099352;23;20825;-90
2023/04/20 11:42:45;;;;;;;1.08;0.82;;;;;;;20.03;43.70;99832.34;6098234;23;20005;-90